sensor_id;sensor_type;location;lat;lon;timestamp;P1;durP1;ratioP1;P2;durP2;ratioP2
50319;SDS011;36226;53.464;9.852;2023-04-25T00:03:46;7.07;;;3.67;;
50319;SDS011;36226;53.464;9.852;2023-04-25T00:08:37;8.45;;;3.40;;
50319;SDS011;36226;53.464;9.852;2023-04-25T00:11:02;7.05;;;3.33;;
50319;SDS011;36226;53.464;9.852;2023-04-25T00:13:28;5.20;;;3.15;;
50319;SDS011;36226;53.464;9.852;2023-04-25T00:15:53;6.35;;;2.90;;
50319;SDS011;36226;53.464;9.852;2023-04-25T00:18:19;10.63;;;3.33;;
50319;SDS011;36226;53.464;9.852;2023-04-25T00:20:45;9.40;;;3.20;;
50319;SDS011;36226;53.464;9.852;2023-04-25T00:23:15;10.68;;;3.10;;
50319;SDS011;36226;53.464;9.852;2023-04-25T00:25:42;10.25;;;2.88;;
50319;SDS011;36226;53.464;9.852;2023-04-25T00:28:12;15.90;;;3.08;;
50319;SDS011;36226;53.464;9.852;2023-04-25T00:30:38;15.15;;;3.20;;
50319;SDS011;36226;53.464;9.852;2023-04-25T00:33:04;11.40;;;2.95;;
50319;SDS011;36226;53.464;9.852;2023-04-25T00:35:29;10.25;;;3.28;;
50319;SDS011;36226;53.464;9.852;2023-04-25T00:37:54;12.65;;;3.47;;
50319;SDS011;36226;53.464;9.852;2023-04-25T00:40:20;15.07;;;3.13;;
50319;SDS011;36226;53.464;9.852;2023-04-25T00:42:45;13.23;;;3.50;;
50319;SDS011;36226;53.464;9.852;2023-04-25T00:45:12;15.73;;;3.53;;
50319;SDS011;36226;53.464;9.852;2023-04-25T00:47:42;15.77;;;2.88;;
50319;SDS011;36226;53.464;9.852;2023-04-25T00:50:08;12.88;;;3.10;;
50319;SDS011;36226;53.464;9.852;2023-04-25T00:52:34;16.48;;;3.35;;
50319;SDS011;36226;53.464;9.852;2023-04-25T00:54:59;17.95;;;3.22;;
50319;SDS011;36226;53.464;9.852;2023-04-25T00:57:24;12.48;;;2.90;;
50319;SDS011;36226;53.464;9.852;2023-04-25T00:59:50;17.25;;;2.97;;
50319;SDS011;36226;53.464;9.852;2023-04-25T01:02:17;22.35;;;3.40;;
50319;SDS011;36226;53.464;9.852;2023-04-25T01:04:42;15.30;;;3.13;;
50319;SDS011;36226;53.464;9.852;2023-04-25T01:07:07;16.98;;;3.80;;
50319;SDS011;36226;53.464;9.852;2023-04-25T01:09:34;20.65;;;3.05;;
50319;SDS011;36226;53.464;9.852;2023-04-25T01:12:00;14.65;;;3.00;;
50319;SDS011;36226;53.464;9.852;2023-04-25T01:14:26;22.52;;;4.20;;
50319;SDS011;36226;53.464;9.852;2023-04-25T01:16:51;20.67;;;3.53;;
50319;SDS011;36226;53.464;9.852;2023-04-25T01:19:17;23.05;;;3.75;;
50319;SDS011;36226;53.464;9.852;2023-04-25T01:21:43;19.17;;;3.53;;
50319;SDS011;36226;53.464;9.852;2023-04-25T01:24:08;14.68;;;3.17;;
50319;SDS011;36226;53.464;9.852;2023-04-25T01:26:34;17.85;;;4.38;;
50319;SDS011;36226;53.464;9.852;2023-04-25T01:32:22;21.05;;;4.00;;
50319;SDS011;36226;53.464;9.852;2023-04-25T01:34:48;18.48;;;4.65;;
50319;SDS011;36226;53.464;9.852;2023-04-25T01:37:14;20.20;;;4.10;;
50319;SDS011;36226;53.464;9.852;2023-04-25T01:39:40;20.70;;;3.35;;
50319;SDS011;36226;53.464;9.852;2023-04-25T01:42:05;24.40;;;4.00;;
50319;SDS011;36226;53.464;9.852;2023-04-25T01:44:31;23.10;;;3.47;;
50319;SDS011;36226;53.464;9.852;2023-04-25T01:46:56;22.15;;;3.67;;
50319;SDS011;36226;53.464;9.852;2023-04-25T01:49:22;25.75;;;4.05;;
50319;SDS011;36226;53.464;9.852;2023-04-25T01:51:48;24.90;;;3.33;;
50319;SDS011;36226;53.464;9.852;2023-04-25T01:54:13;12.80;;;3.10;;
50319;SDS011;36226;53.464;9.852;2023-04-25T01:56:39;15.02;;;3.25;;
50319;SDS011;36226;53.464;9.852;2023-04-25T01:59:05;16.63;;;3.17;;
50319;SDS011;36226;53.464;9.852;2023-04-25T02:01:30;17.48;;;3.80;;
50319;SDS011;36226;53.464;9.852;2023-04-25T02:03:56;17.58;;;3.28;;
50319;SDS011;36226;53.464;9.852;2023-04-25T02:06:21;19.73;;;3.60;;
50319;SDS011;36226;53.464;9.852;2023-04-25T02:08:46;19.85;;;3.40;;
50319;SDS011;36226;53.464;9.852;2023-04-25T02:14:34;18.42;;;3.00;;
50319;SDS011;36226;53.464;9.852;2023-04-25T02:16:59;15.73;;;3.03;;
50319;SDS011;36226;53.464;9.852;2023-04-25T02:19:24;29.75;;;4.10;;
50319;SDS011;36226;53.464;9.852;2023-04-25T02:21:50;15.98;;;3.60;;
50319;SDS011;36226;53.464;9.852;2023-04-25T02:24:15;19.88;;;3.28;;
50319;SDS011;36226;53.464;9.852;2023-04-25T02:26:40;14.43;;;3.38;;
50319;SDS011;36226;53.464;9.852;2023-04-25T02:29:06;17.23;;;3.00;;
50319;SDS011;36226;53.464;9.852;2023-04-25T02:31:32;17.88;;;3.65;;
50319;SDS011;36226;53.464;9.852;2023-04-25T02:33:57;20.73;;;3.60;;
50319;SDS011;36226;53.464;9.852;2023-04-25T02:36:22;19.45;;;3.70;;
50319;SDS011;36226;53.464;9.852;2023-04-25T02:38:48;15.35;;;2.53;;
50319;SDS011;36226;53.464;9.852;2023-04-25T02:41:14;23.02;;;3.33;;
50319;SDS011;36226;53.464;9.852;2023-04-25T02:43:39;12.75;;;3.08;;
50319;SDS011;36226;53.464;9.852;2023-04-25T02:46:05;25.27;;;4.65;;
50319;SDS011;36226;53.464;9.852;2023-04-25T02:48:31;23.13;;;3.63;;
50319;SDS011;36226;53.464;9.852;2023-04-25T02:50:56;13.95;;;3.08;;
50319;SDS011;36226;53.464;9.852;2023-04-25T02:53:21;23.35;;;3.80;;
50319;SDS011;36226;53.464;9.852;2023-04-25T02:55:47;24.75;;;3.55;;
50319;SDS011;36226;53.464;9.852;2023-04-25T02:58:12;13.80;;;3.03;;
50319;SDS011;36226;53.464;9.852;2023-04-25T03:00:37;15.30;;;2.90;;
50319;SDS011;36226;53.464;9.852;2023-04-25T03:03:03;21.55;;;3.28;;
50319;SDS011;36226;53.464;9.852;2023-04-25T03:05:28;19.10;;;3.20;;
50319;SDS011;36226;53.464;9.852;2023-04-25T03:07:53;19.40;;;2.75;;
50319;SDS011;36226;53.464;9.852;2023-04-25T03:10:19;13.05;;;3.33;;
50319;SDS011;36226;53.464;9.852;2023-04-25T03:16:09;20.25;;;2.72;;
50319;SDS011;36226;53.464;9.852;2023-04-25T03:19:24;20.48;;;2.80;;
50319;SDS011;36226;53.464;9.852;2023-04-25T03:29:47;17.02;;;3.10;;
50319;SDS011;36226;53.464;9.852;2023-04-25T03:33:30;19.58;;;2.90;;
50319;SDS011;36226;53.464;9.852;2023-04-25T03:36:46;13.07;;;3.15;;
50319;SDS011;36226;53.464;9.852;2023-04-25T03:40:38;21.60;;;3.03;;
50319;SDS011;36226;53.464;9.852;2023-04-25T03:43:52;13.88;;;2.65;;
50319;SDS011;36226;53.464;9.852;2023-04-25T03:47:31;18.08;;;2.97;;
50319;SDS011;36226;53.464;9.852;2023-04-25T03:49:56;17.25;;;2.78;;
50319;SDS011;36226;53.464;9.852;2023-04-25T03:52:22;16.65;;;2.78;;
50319;SDS011;36226;53.464;9.852;2023-04-25T03:54:47;16.33;;;3.42;;
50319;SDS011;36226;53.464;9.852;2023-04-25T03:57:12;18.30;;;2.50;;
50319;SDS011;36226;53.464;9.852;2023-04-25T03:59:38;18.40;;;3.10;;
50319;SDS011;36226;53.464;9.852;2023-04-25T04:02:03;17.33;;;2.80;;
50319;SDS011;36226;53.464;9.852;2023-04-25T04:04:31;13.68;;;2.40;;
50319;SDS011;36226;53.464;9.852;2023-04-25T04:06:57;16.40;;;2.97;;
50319;SDS011;36226;53.464;9.852;2023-04-25T04:09:22;13.63;;;3.00;;
50319;SDS011;36226;53.464;9.852;2023-04-25T04:11:50;16.42;;;3.63;;
50319;SDS011;36226;53.464;9.852;2023-04-25T04:14:15;9.13;;;1.92;;
50319;SDS011;36226;53.464;9.852;2023-04-25T04:16:40;18.33;;;3.30;;
50319;SDS011;36226;53.464;9.852;2023-04-25T04:19:06;20.65;;;3.72;;
50319;SDS011;36226;53.464;9.852;2023-04-25T04:21:31;18.05;;;2.70;;
50319;SDS011;36226;53.464;9.852;2023-04-25T04:23:58;15.52;;;2.72;;
50319;SDS011;36226;53.464;9.852;2023-04-25T04:26:24;18.80;;;3.17;;
50319;SDS011;36226;53.464;9.852;2023-04-25T04:28:51;12.90;;;2.58;;
50319;SDS011;36226;53.464;9.852;2023-04-25T04:31:16;22.25;;;2.80;;
50319;SDS011;36226;53.464;9.852;2023-04-25T04:33:44;13.77;;;2.85;;
50319;SDS011;36226;53.464;9.852;2023-04-25T04:36:10;14.60;;;2.55;;
50319;SDS011;36226;53.464;9.852;2023-04-25T04:38:35;17.30;;;2.50;;
50319;SDS011;36226;53.464;9.852;2023-04-25T04:41:01;16.73;;;2.90;;
50319;SDS011;36226;53.464;9.852;2023-04-25T04:43:27;17.10;;;2.25;;
50319;SDS011;36226;53.464;9.852;2023-04-25T04:45:53;16.90;;;2.80;;
50319;SDS011;36226;53.464;9.852;2023-04-25T04:48:21;10.00;;;2.38;;
50319;SDS011;36226;53.464;9.852;2023-04-25T04:50:46;18.58;;;2.85;;
50319;SDS011;36226;53.464;9.852;2023-04-25T04:53:12;15.43;;;2.50;;
50319;SDS011;36226;53.464;9.852;2023-04-25T04:55:38;14.18;;;2.58;;
50319;SDS011;36226;53.464;9.852;2023-04-25T04:58:03;15.45;;;2.35;;
50319;SDS011;36226;53.464;9.852;2023-04-25T05:00:29;24.60;;;3.40;;
50319;SDS011;36226;53.464;9.852;2023-04-25T05:02:54;10.45;;;2.25;;
50319;SDS011;36226;53.464;9.852;2023-04-25T05:05:23;21.40;;;3.17;;
50319;SDS011;36226;53.464;9.852;2023-04-25T05:07:48;11.13;;;2.47;;
50319;SDS011;36226;53.464;9.852;2023-04-25T05:10:13;9.85;;;2.47;;
50319;SDS011;36226;53.464;9.852;2023-04-25T05:12:39;9.82;;;2.40;;
50319;SDS011;36226;53.464;9.852;2023-04-25T05:15:04;15.05;;;2.55;;
50319;SDS011;36226;53.464;9.852;2023-04-25T05:17:30;22.60;;;2.92;;
50319;SDS011;36226;53.464;9.852;2023-04-25T05:19:55;15.85;;;2.80;;
50319;SDS011;36226;53.464;9.852;2023-04-25T05:22:22;18.17;;;2.92;;
50319;SDS011;36226;53.464;9.852;2023-04-25T05:24:47;21.80;;;4.55;;
50319;SDS011;36226;53.464;9.852;2023-04-25T05:27:13;18.58;;;2.53;;
50319;SDS011;36226;53.464;9.852;2023-04-25T05:29:41;11.50;;;1.92;;
50319;SDS011;36226;53.464;9.852;2023-04-25T05:32:06;11.20;;;2.20;;
50319;SDS011;36226;53.464;9.852;2023-04-25T05:34:32;20.52;;;2.85;;
50319;SDS011;36226;53.464;9.852;2023-04-25T05:36:57;12.23;;;2.78;;
50319;SDS011;36226;53.464;9.852;2023-04-25T05:39:23;6.43;;;1.98;;
50319;SDS011;36226;53.464;9.852;2023-04-25T05:41:48;10.90;;;2.42;;
50319;SDS011;36226;53.464;9.852;2023-04-25T05:44:13;15.07;;;2.15;;
50319;SDS011;36226;53.464;9.852;2023-04-25T05:46:40;14.70;;;3.10;;
50319;SDS011;36226;53.464;9.852;2023-04-25T05:49:06;11.95;;;2.28;;
50319;SDS011;36226;53.464;9.852;2023-04-25T05:51:31;13.57;;;2.50;;
50319;SDS011;36226;53.464;9.852;2023-04-25T05:53:57;12.63;;;2.17;;
50319;SDS011;36226;53.464;9.852;2023-04-25T05:56:22;12.55;;;2.03;;
50319;SDS011;36226;53.464;9.852;2023-04-25T05:58:48;11.43;;;2.03;;
50319;SDS011;36226;53.464;9.852;2023-04-25T06:01:13;20.92;;;2.47;;
50319;SDS011;36226;53.464;9.852;2023-04-25T06:03:39;13.18;;;2.20;;
50319;SDS011;36226;53.464;9.852;2023-04-25T06:06:07;17.95;;;2.53;;
50319;SDS011;36226;53.464;9.852;2023-04-25T06:08:33;10.50;;;2.00;;
50319;SDS011;36226;53.464;9.852;2023-04-25T06:10:58;11.75;;;2.17;;
50319;SDS011;36226;53.464;9.852;2023-04-25T06:13:24;15.98;;;1.98;;
50319;SDS011;36226;53.464;9.852;2023-04-25T06:15:49;9.80;;;2.30;;
50319;SDS011;36226;53.464;9.852;2023-04-25T06:18:14;18.33;;;2.45;;
50319;SDS011;36226;53.464;9.852;2023-04-25T06:20:40;13.32;;;2.38;;
50319;SDS011;36226;53.464;9.852;2023-04-25T06:23:05;17.38;;;3.00;;
50319;SDS011;36226;53.464;9.852;2023-04-25T06:25:30;15.00;;;2.28;;
50319;SDS011;36226;53.464;9.852;2023-04-25T06:27:56;15.15;;;2.97;;
50319;SDS011;36226;53.464;9.852;2023-04-25T06:30:21;14.40;;;2.22;;
50319;SDS011;36226;53.464;9.852;2023-04-25T06:32:51;9.75;;;2.20;;
50319;SDS011;36226;53.464;9.852;2023-04-25T06:35:17;9.63;;;1.95;;
50319;SDS011;36226;53.464;9.852;2023-04-25T06:37:42;9.68;;;2.42;;
50319;SDS011;36226;53.464;9.852;2023-04-25T06:40:07;12.73;;;1.90;;
50319;SDS011;36226;53.464;9.852;2023-04-25T06:42:33;7.45;;;1.75;;
50319;SDS011;36226;53.464;9.852;2023-04-25T06:44:58;14.65;;;2.33;;
50319;SDS011;36226;53.464;9.852;2023-04-25T06:47:24;12.95;;;2.20;;
50319;SDS011;36226;53.464;9.852;2023-04-25T06:49:49;11.63;;;1.80;;
50319;SDS011;36226;53.464;9.852;2023-04-25T06:52:15;8.00;;;1.50;;
50319;SDS011;36226;53.464;9.852;2023-04-25T06:54:40;14.45;;;2.40;;
50319;SDS011;36226;53.464;9.852;2023-04-25T06:57:05;9.27;;;2.08;;
50319;SDS011;36226;53.464;9.852;2023-04-25T06:59:31;11.35;;;1.80;;
50319;SDS011;36226;53.464;9.852;2023-04-25T07:01:57;14.13;;;2.35;;
50319;SDS011;36226;53.464;9.852;2023-04-25T07:04:23;11.77;;;2.35;;
50319;SDS011;36226;53.464;9.852;2023-04-25T07:06:48;12.52;;;2.38;;
50319;SDS011;36226;53.464;9.852;2023-04-25T07:09:14;14.55;;;2.65;;
50319;SDS011;36226;53.464;9.852;2023-04-25T07:11:39;7.75;;;2.00;;
50319;SDS011;36226;53.464;9.852;2023-04-25T07:14:06;10.90;;;1.90;;
50319;SDS011;36226;53.464;9.852;2023-04-25T07:16:31;14.85;;;1.88;;
50319;SDS011;36226;53.464;9.852;2023-04-25T07:18:56;14.30;;;2.67;;
50319;SDS011;36226;53.464;9.852;2023-04-25T07:21:22;11.40;;;2.30;;
50319;SDS011;36226;53.464;9.852;2023-04-25T07:23:47;11.30;;;2.00;;
50319;SDS011;36226;53.464;9.852;2023-04-25T07:26:13;10.77;;;1.83;;
50319;SDS011;36226;53.464;9.852;2023-04-25T07:28:38;10.52;;;1.67;;
50319;SDS011;36226;53.464;9.852;2023-04-25T07:31:04;10.27;;;1.90;;
50319;SDS011;36226;53.464;9.852;2023-04-25T07:33:30;8.50;;;1.83;;
50319;SDS011;36226;53.464;9.852;2023-04-25T07:35:55;7.65;;;1.38;;
50319;SDS011;36226;53.464;9.852;2023-04-25T07:38:21;13.00;;;1.55;;
50319;SDS011;36226;53.464;9.852;2023-04-25T07:40:47;9.20;;;1.98;;
50319;SDS011;36226;53.464;9.852;2023-04-25T07:43:13;5.63;;;1.63;;
50319;SDS011;36226;53.464;9.852;2023-04-25T07:45:41;11.68;;;1.73;;
50319;SDS011;36226;53.464;9.852;2023-04-25T07:48:07;7.78;;;1.50;;
50319;SDS011;36226;53.464;9.852;2023-04-25T07:50:32;9.95;;;1.30;;
50319;SDS011;36226;53.464;9.852;2023-04-25T07:52:58;9.30;;;2.00;;
50319;SDS011;36226;53.464;9.852;2023-04-25T07:55:23;3.70;;;1.08;;
50319;SDS011;36226;53.464;9.852;2023-04-25T07:57:48;5.13;;;1.00;;
50319;SDS011;36226;53.464;9.852;2023-04-25T08:00:16;6.35;;;1.10;;
50319;SDS011;36226;53.464;9.852;2023-04-25T08:02:42;7.68;;;1.30;;
50319;SDS011;36226;53.464;9.852;2023-04-25T08:05:07;8.48;;;1.20;;
50319;SDS011;36226;53.464;9.852;2023-04-25T08:07:36;6.13;;;1.00;;
50319;SDS011;36226;53.464;9.852;2023-04-25T08:10:02;4.80;;;0.95;;
50319;SDS011;36226;53.464;9.852;2023-04-25T08:12:27;9.25;;;1.10;;
50319;SDS011;36226;53.464;9.852;2023-04-25T08:14:53;9.60;;;1.50;;
50319;SDS011;36226;53.464;9.852;2023-04-25T08:17:18;8.02;;;1.10;;
50319;SDS011;36226;53.464;9.852;2023-04-25T08:19:43;6.72;;;1.70;;
50319;SDS011;36226;53.464;9.852;2023-04-25T08:22:09;10.07;;;1.30;;
50319;SDS011;36226;53.464;9.852;2023-04-25T08:24:34;5.40;;;1.02;;
50319;SDS011;36226;53.464;9.852;2023-04-25T08:27:00;8.07;;;1.38;;
50319;SDS011;36226;53.464;9.852;2023-04-25T08:29:25;4.88;;;1.10;;
50319;SDS011;36226;53.464;9.852;2023-04-25T08:31:51;9.32;;;1.10;;
50319;SDS011;36226;53.464;9.852;2023-04-25T08:34:17;7.93;;;0.95;;
50319;SDS011;36226;53.464;9.852;2023-04-25T08:36:43;2.67;;;0.82;;
50319;SDS011;36226;53.464;9.852;2023-04-25T08:39:08;4.85;;;1.17;;
50319;SDS011;36226;53.464;9.852;2023-04-25T08:41:36;6.75;;;1.20;;
50319;SDS011;36226;53.464;9.852;2023-04-25T08:44:02;6.10;;;0.85;;
50319;SDS011;36226;53.464;9.852;2023-04-25T08:46:28;5.43;;;1.00;;
50319;SDS011;36226;53.464;9.852;2023-04-25T08:48:53;6.90;;;1.00;;
50319;SDS011;36226;53.464;9.852;2023-04-25T08:51:25;6.72;;;1.13;;
50319;SDS011;36226;53.464;9.852;2023-04-25T08:53:53;5.85;;;1.05;;
50319;SDS011;36226;53.464;9.852;2023-04-25T08:56:18;6.47;;;1.60;;
50319;SDS011;36226;53.464;9.852;2023-04-25T08:58:50;6.47;;;1.25;;
50319;SDS011;36226;53.464;9.852;2023-04-25T09:01:15;11.00;;;1.40;;
50319;SDS011;36226;53.464;9.852;2023-04-25T09:03:42;2.47;;;0.65;;
50319;SDS011;36226;53.464;9.852;2023-04-25T09:06:07;3.70;;;0.80;;
50319;SDS011;36226;53.464;9.852;2023-04-25T09:08:36;6.55;;;2.17;;
50319;SDS011;36226;53.464;9.852;2023-04-25T09:11:01;3.97;;;0.80;;
50319;SDS011;36226;53.464;9.852;2023-04-25T09:13:27;5.18;;;0.95;;
50319;SDS011;36226;53.464;9.852;2023-04-25T09:18:29;3.83;;;0.80;;
50319;SDS011;36226;53.464;9.852;2023-04-25T09:20:56;7.03;;;0.95;;
50319;SDS011;36226;53.464;9.852;2023-04-25T09:23:38;3.90;;;0.90;;
50319;SDS011;36226;53.464;9.852;2023-04-25T09:26:13;9.55;;;0.90;;
50319;SDS011;36226;53.464;9.852;2023-04-25T09:28:40;8.85;;;2.00;;
50319;SDS011;36226;53.464;9.852;2023-04-25T09:31:09;4.72;;;0.82;;
50319;SDS011;36226;53.464;9.852;2023-04-25T09:33:35;6.70;;;0.90;;
50319;SDS011;36226;53.464;9.852;2023-04-25T09:36:01;5.38;;;1.05;;
50319;SDS011;36226;53.464;9.852;2023-04-25T09:38:31;6.28;;;0.93;;
50319;SDS011;36226;53.464;9.852;2023-04-25T09:40:57;5.25;;;1.10;;
50319;SDS011;36226;53.464;9.852;2023-04-25T09:43:23;4.72;;;0.90;;
50319;SDS011;36226;53.464;9.852;2023-04-25T09:45:49;6.60;;;2.05;;
50319;SDS011;36226;53.464;9.852;2023-04-25T09:48:20;5.47;;;1.10;;
50319;SDS011;36226;53.464;9.852;2023-04-25T09:51:06;9.73;;;1.35;;
50319;SDS011;36226;53.464;9.852;2023-04-25T09:53:36;11.40;;;1.48;;
50319;SDS011;36226;53.464;9.852;2023-04-25T09:56:16;10.73;;;1.48;;
50319;SDS011;36226;53.464;9.852;2023-04-25T09:58:41;8.95;;;1.17;;
50319;SDS011;36226;53.464;9.852;2023-04-25T10:01:07;6.90;;;1.10;;
50319;SDS011;36226;53.464;9.852;2023-04-25T10:03:37;2.97;;;0.95;;
50319;SDS011;36226;53.464;9.852;2023-04-25T10:06:08;8.82;;;1.10;;
50319;SDS011;36226;53.464;9.852;2023-04-25T10:08:38;6.10;;;1.17;;
50319;SDS011;36226;53.464;9.852;2023-04-25T10:11:04;6.75;;;1.08;;
50319;SDS011;36226;53.464;9.852;2023-04-25T10:13:32;6.18;;;0.93;;
50319;SDS011;36226;53.464;9.852;2023-04-25T10:15:59;6.43;;;0.98;;
50319;SDS011;36226;53.464;9.852;2023-04-25T10:18:25;7.45;;;0.90;;
50319;SDS011;36226;53.464;9.852;2023-04-25T10:20:53;8.27;;;1.20;;
50319;SDS011;36226;53.464;9.852;2023-04-25T10:23:22;11.98;;;1.23;;
50319;SDS011;36226;53.464;9.852;2023-04-25T10:25:49;3.10;;;0.90;;
50319;SDS011;36226;53.464;9.852;2023-04-25T10:28:15;6.22;;;1.00;;
50319;SDS011;36226;53.464;9.852;2023-04-25T10:30:56;5.35;;;1.00;;
50319;SDS011;36226;53.464;9.852;2023-04-25T10:33:40;7.63;;;1.35;;
50319;SDS011;36226;53.464;9.852;2023-04-25T10:36:14;6.60;;;1.20;;
50319;SDS011;36226;53.464;9.852;2023-04-25T10:38:42;5.30;;;0.95;;
50319;SDS011;36226;53.464;9.852;2023-04-25T10:41:09;3.20;;;0.80;;
50319;SDS011;36226;53.464;9.852;2023-04-25T10:43:42;6.22;;;0.80;;
50319;SDS011;36226;53.464;9.852;2023-04-25T10:46:23;2.13;;;0.60;;
50319;SDS011;36226;53.464;9.852;2023-04-25T10:51:23;2.85;;;0.98;;
50319;SDS011;36226;53.464;9.852;2023-04-25T10:54:06;3.13;;;0.82;;
50319;SDS011;36226;53.464;9.852;2023-04-25T10:59:04;3.97;;;0.80;;
50319;SDS011;36226;53.464;9.852;2023-04-25T11:01:56;3.90;;;1.25;;
50319;SDS011;36226;53.464;9.852;2023-04-25T11:04:28;6.13;;;1.40;;
50319;SDS011;36226;53.464;9.852;2023-04-25T11:09:35;5.53;;;1.27;;
50319;SDS011;36226;53.464;9.852;2023-04-25T11:12:01;10.20;;;0.93;;
50319;SDS011;36226;53.464;9.852;2023-04-25T11:14:26;2.05;;;0.60;;
50319;SDS011;36226;53.464;9.852;2023-04-25T11:16:54;5.80;;;0.98;;
50319;SDS011;36226;53.464;9.852;2023-04-25T11:19:21;4.32;;;0.90;;
50319;SDS011;36226;53.464;9.852;2023-04-25T11:21:46;3.80;;;0.77;;
50319;SDS011;36226;53.464;9.852;2023-04-25T11:24:12;6.53;;;0.80;;
50319;SDS011;36226;53.464;9.852;2023-04-25T11:26:37;6.65;;;0.82;;
50319;SDS011;36226;53.464;9.852;2023-04-25T11:29:02;9.73;;;1.23;;
50319;SDS011;36226;53.464;9.852;2023-04-25T11:31:28;4.28;;;1.00;;
50319;SDS011;36226;53.464;9.852;2023-04-25T11:33:54;3.60;;;0.98;;
50319;SDS011;36226;53.464;9.852;2023-04-25T11:36:22;5.47;;;0.77;;
50319;SDS011;36226;53.464;9.852;2023-04-25T11:38:48;5.03;;;0.90;;
50319;SDS011;36226;53.464;9.852;2023-04-25T11:41:15;7.00;;;1.50;;
50319;SDS011;36226;53.464;9.852;2023-04-25T11:43:42;1.98;;;0.50;;
50319;SDS011;36226;53.464;9.852;2023-04-25T11:46:08;3.63;;;0.50;;
50319;SDS011;36226;53.464;9.852;2023-04-25T11:48:37;3.55;;;0.63;;
50319;SDS011;36226;53.464;9.852;2023-04-25T11:51:06;3.33;;;0.50;;
50319;SDS011;36226;53.464;9.852;2023-04-25T11:53:32;2.33;;;0.65;;
50319;SDS011;36226;53.464;9.852;2023-04-25T11:55:57;4.57;;;0.70;;
50319;SDS011;36226;53.464;9.852;2023-04-25T11:58:22;3.00;;;0.80;;
50319;SDS011;36226;53.464;9.852;2023-04-25T12:00:48;4.45;;;0.75;;
50319;SDS011;36226;53.464;9.852;2023-04-25T12:03:13;4.22;;;0.70;;
50319;SDS011;36226;53.464;9.852;2023-04-25T12:05:39;5.15;;;1.00;;
50319;SDS011;36226;53.464;9.852;2023-04-25T12:08:11;8.75;;;2.13;;
50319;SDS011;36226;53.464;9.852;2023-04-25T12:10:37;4.50;;;0.93;;
50319;SDS011;36226;53.464;9.852;2023-04-25T12:13:20;9.88;;;1.00;;
50319;SDS011;36226;53.464;9.852;2023-04-25T12:15:47;4.28;;;0.77;;
50319;SDS011;36226;53.464;9.852;2023-04-25T12:18:12;5.30;;;0.80;;
50319;SDS011;36226;53.464;9.852;2023-04-25T12:20:38;4.88;;;1.08;;
50319;SDS011;36226;53.464;9.852;2023-04-25T12:23:05;4.95;;;0.80;;
50319;SDS011;36226;53.464;9.852;2023-04-25T12:33:28;8.18;;;0.80;;
50319;SDS011;36226;53.464;9.852;2023-04-25T12:35:57;6.13;;;1.20;;
50319;SDS011;36226;53.464;9.852;2023-04-25T12:38:26;6.63;;;0.90;;
50319;SDS011;36226;53.464;9.852;2023-04-25T12:40:54;2.63;;;0.68;;
50319;SDS011;36226;53.464;9.852;2023-04-25T12:43:20;7.85;;;1.80;;
50319;SDS011;36226;53.464;9.852;2023-04-25T12:45:49;6.70;;;0.80;;
50319;SDS011;36226;53.464;9.852;2023-04-25T12:48:16;1.25;;;0.60;;
50319;SDS011;36226;53.464;9.852;2023-04-25T12:50:41;8.65;;;1.50;;
50319;SDS011;36226;53.464;9.852;2023-04-25T12:53:07;4.43;;;1.52;;
50319;SDS011;36226;53.464;9.852;2023-04-25T12:55:32;6.13;;;1.20;;
50319;SDS011;36226;53.464;9.852;2023-04-25T12:57:58;5.55;;;1.42;;
50319;SDS011;36226;53.464;9.852;2023-04-25T13:00:23;6.18;;;1.27;;
50319;SDS011;36226;53.464;9.852;2023-04-25T13:02:49;5.45;;;1.00;;
50319;SDS011;36226;53.464;9.852;2023-04-25T13:05:15;7.70;;;1.63;;
50319;SDS011;36226;53.464;9.852;2023-04-25T13:07:40;7.45;;;1.40;;
50319;SDS011;36226;53.464;9.852;2023-04-25T13:10:06;9.48;;;1.95;;
50319;SDS011;36226;53.464;9.852;2023-04-25T13:12:37;5.22;;;1.30;;
50319;SDS011;36226;53.464;9.852;2023-04-25T13:15:03;6.90;;;1.27;;
50319;SDS011;36226;53.464;9.852;2023-04-25T13:17:28;10.02;;;1.20;;
50319;SDS011;36226;53.464;9.852;2023-04-25T13:19:54;6.13;;;1.10;;
50319;SDS011;36226;53.464;9.852;2023-04-25T13:22:19;8.43;;;1.95;;
50319;SDS011;36226;53.464;9.852;2023-04-25T13:24:45;6.30;;;1.20;;
50319;SDS011;36226;53.464;9.852;2023-04-25T13:27:11;6.03;;;0.90;;
50319;SDS011;36226;53.464;9.852;2023-04-25T13:29:37;5.10;;;1.00;;
50319;SDS011;36226;53.464;9.852;2023-04-25T13:32:03;7.57;;;1.67;;
50319;SDS011;36226;53.464;9.852;2023-04-25T13:34:29;5.05;;;0.90;;
50319;SDS011;36226;53.464;9.852;2023-04-25T13:36:55;4.28;;;0.85;;
50319;SDS011;36226;53.464;9.852;2023-04-25T13:39:21;3.80;;;0.90;;
50319;SDS011;36226;53.464;9.852;2023-04-25T13:41:46;5.43;;;1.08;;
50319;SDS011;36226;53.464;9.852;2023-04-25T13:44:12;4.93;;;0.90;;
50319;SDS011;36226;53.464;9.852;2023-04-25T13:46:37;4.97;;;1.00;;
50319;SDS011;36226;53.464;9.852;2023-04-25T13:49:05;7.20;;;1.00;;
50319;SDS011;36226;53.464;9.852;2023-04-25T13:51:31;5.63;;;0.80;;
50319;SDS011;36226;53.464;9.852;2023-04-25T13:53:57;5.07;;;1.00;;
50319;SDS011;36226;53.464;9.852;2023-04-25T13:56:22;2.38;;;1.02;;
50319;SDS011;36226;53.464;9.852;2023-04-25T13:58:48;3.22;;;1.10;;
50319;SDS011;36226;53.464;9.852;2023-04-25T14:01:16;4.38;;;0.95;;
50319;SDS011;36226;53.464;9.852;2023-04-25T14:03:42;5.88;;;1.10;;
50319;SDS011;36226;53.464;9.852;2023-04-25T14:06:10;4.07;;;1.52;;
50319;SDS011;36226;53.464;9.852;2023-04-25T14:08:37;5.78;;;0.90;;
50319;SDS011;36226;53.464;9.852;2023-04-25T14:11:03;6.55;;;1.02;;
50319;SDS011;36226;53.464;9.852;2023-04-25T14:13:28;8.35;;;1.20;;
50319;SDS011;36226;53.464;9.852;2023-04-25T14:15:53;4.55;;;0.88;;
50319;SDS011;36226;53.464;9.852;2023-04-25T14:18:19;4.80;;;1.15;;
50319;SDS011;36226;53.464;9.852;2023-04-25T14:20:45;5.90;;;1.20;;
50319;SDS011;36226;53.464;9.852;2023-04-25T14:23:10;11.15;;;1.40;;
50319;SDS011;36226;53.464;9.852;2023-04-25T14:25:36;5.05;;;1.40;;
50319;SDS011;36226;53.464;9.852;2023-04-25T14:28:01;5.03;;;1.63;;
50319;SDS011;36226;53.464;9.852;2023-04-25T14:30:27;5.10;;;1.20;;
50319;SDS011;36226;53.464;9.852;2023-04-25T14:32:52;7.57;;;1.40;;
50319;SDS011;36226;53.464;9.852;2023-04-25T14:35:17;2.20;;;0.50;;
50319;SDS011;36226;53.464;9.852;2023-04-25T14:37:43;5.95;;;0.98;;
50319;SDS011;36226;53.464;9.852;2023-04-25T14:40:09;4.22;;;1.00;;
50319;SDS011;36226;53.464;9.852;2023-04-25T14:42:35;3.45;;;1.08;;
50319;SDS011;36226;53.464;9.852;2023-04-25T14:45:02;5.30;;;1.10;;
50319;SDS011;36226;53.464;9.852;2023-04-25T14:47:28;6.78;;;1.00;;
50319;SDS011;36226;53.464;9.852;2023-04-25T14:49:53;5.72;;;1.38;;
50319;SDS011;36226;53.464;9.852;2023-04-25T14:52:19;4.90;;;0.90;;
50319;SDS011;36226;53.464;9.852;2023-04-25T14:54:46;7.00;;;1.10;;
50319;SDS011;36226;53.464;9.852;2023-04-25T14:57:11;3.28;;;0.90;;
50319;SDS011;36226;53.464;9.852;2023-04-25T14:59:37;5.47;;;1.00;;
50319;SDS011;36226;53.464;9.852;2023-04-25T15:02:02;6.63;;;1.92;;
50319;SDS011;36226;53.464;9.852;2023-04-25T15:04:28;5.95;;;1.05;;
50319;SDS011;36226;53.464;9.852;2023-04-25T15:06:53;5.28;;;1.02;;
50319;SDS011;36226;53.464;9.852;2023-04-25T15:09:18;4.50;;;1.15;;
50319;SDS011;36226;53.464;9.852;2023-04-25T15:11:44;7.05;;;1.27;;
50319;SDS011;36226;53.464;9.852;2023-04-25T15:14:10;3.67;;;1.17;;
50319;SDS011;36226;53.464;9.852;2023-04-25T15:16:35;6.88;;;1.33;;
50319;SDS011;36226;53.464;9.852;2023-04-25T15:19:01;3.47;;;0.88;;
50319;SDS011;36226;53.464;9.852;2023-04-25T15:21:29;3.78;;;0.70;;
50319;SDS011;36226;53.464;9.852;2023-04-25T15:23:55;5.65;;;0.82;;